sensor_id;sensor_type;location;lat;lon;timestamp;P1;durP1;ratioP1;P2;durP2;ratioP2
72439;SDS011;60446;50.752;4.352;2024-02-15T00:00:30;14.20;;;5.38;;
72439;SDS011;60446;50.752;4.352;2024-02-15T00:02:59;12.60;;;4.80;;
72439;SDS011;60446;50.752;4.352;2024-02-15T00:05:26;10.38;;;4.60;;
72439;SDS011;60446;50.752;4.352;2024-02-15T00:07:53;14.18;;;5.13;;
72439;SDS011;60446;50.752;4.352;2024-02-15T00:10:21;11.53;;;4.60;;
72439;SDS011;60446;50.752;4.352;2024-02-15T00:12:51;10.30;;;4.55;;
72439;SDS011;60446;50.752;4.352;2024-02-15T00:15:18;13.63;;;4.88;;
72439;SDS011;60446;50.752;4.352;2024-02-15T00:17:46;10.35;;;3.75;;
72439;SDS011;60446;50.752;4.352;2024-02-15T00:20:13;9.60;;;4.15;;
72439;SDS011;60446;50.752;4.352;2024-02-15T00:22:41;11.47;;;5.17;;
72439;SDS011;60446;50.752;4.352;2024-02-15T00:25:08;10.82;;;4.00;;
72439;SDS011;60446;50.752;4.352;2024-02-15T00:27:35;8.63;;;3.63;;
72439;SDS011;60446;50.752;4.352;2024-02-15T00:30:03;7.68;;;3.63;;
72439;SDS011;60446;50.752;4.352;2024-02-15T00:32:34;12.13;;;4.50;;
72439;SDS011;60446;50.752;4.352;2024-02-15T00:35:04;13.23;;;3.97;;
72439;SDS011;60446;50.752;4.352;2024-02-15T00:37:36;9.32;;;3.95;;
72439;SDS011;60446;50.752;4.352;2024-02-15T00:40:04;7.97;;;3.47;;
72439;SDS011;60446;50.752;4.352;2024-02-15T00:42:33;11.13;;;3.55;;
72439;SDS011;60446;50.752;4.352;2024-02-15T00:45:00;11.43;;;3.78;;
72439;SDS011;60446;50.752;4.352;2024-02-15T00:47:30;10.57;;;3.97;;
72439;SDS011;60446;50.752;4.352;2024-02-15T00:49:57;7.18;;;3.13;;
72439;SDS011;60446;50.752;4.352;2024-02-15T00:52:25;7.88;;;3.60;;
72439;SDS011;60446;50.752;4.352;2024-02-15T00:54:52;10.75;;;3.42;;
72439;SDS011;60446;50.752;4.352;2024-02-15T00:57:19;7.50;;;3.40;;
72439;SDS011;60446;50.752;4.352;2024-02-15T00:59:46;9.53;;;3.20;;
72439;SDS011;60446;50.752;4.352;2024-02-15T01:02:14;8.32;;;3.75;;
72439;SDS011;60446;50.752;4.352;2024-02-15T01:04:43;9.48;;;2.95;;
72439;SDS011;60446;50.752;4.352;2024-02-15T01:07:12;14.63;;;3.90;;
72439;SDS011;60446;50.752;4.352;2024-02-15T01:09:40;12.30;;;3.38;;
72439;SDS011;60446;50.752;4.352;2024-02-15T01:12:07;11.17;;;3.63;;
72439;SDS011;60446;50.752;4.352;2024-02-15T01:14:34;7.38;;;2.85;;
72439;SDS011;60446;50.752;4.352;2024-02-15T01:17:03;9.52;;;3.28;;
72439;SDS011;60446;50.752;4.352;2024-02-15T01:19:30;8.93;;;3.90;;
72439;SDS011;60446;50.752;4.352;2024-02-15T01:21:57;8.05;;;2.58;;
72439;SDS011;60446;50.752;4.352;2024-02-15T01:24:29;8.30;;;2.90;;
72439;SDS011;60446;50.752;4.352;2024-02-15T01:26:56;9.18;;;3.60;;
72439;SDS011;60446;50.752;4.352;2024-02-15T01:29:24;6.95;;;2.95;;
72439;SDS011;60446;50.752;4.352;2024-02-15T01:31:52;8.10;;;3.00;;
72439;SDS011;60446;50.752;4.352;2024-02-15T01:34:19;8.55;;;3.08;;
72439;SDS011;60446;50.752;4.352;2024-02-15T01:36:48;6.10;;;2.77;;
72439;SDS011;60446;50.752;4.352;2024-02-15T01:39:16;6.80;;;3.70;;
72439;SDS011;60446;50.752;4.352;2024-02-15T01:41:47;7.53;;;3.30;;
72439;SDS011;60446;50.752;4.352;2024-02-15T01:44:18;7.00;;;2.88;;
72439;SDS011;60446;50.752;4.352;2024-02-15T01:46:47;6.32;;;3.15;;
72439;SDS011;60446;50.752;4.352;2024-02-15T01:49:16;7.70;;;2.80;;
72439;SDS011;60446;50.752;4.352;2024-02-15T01:51:46;7.88;;;2.20;;
72439;SDS011;60446;50.752;4.352;2024-02-15T01:54:19;9.00;;;3.17;;
72439;SDS011;60446;50.752;4.352;2024-02-15T01:56:47;6.05;;;2.63;;
72439;SDS011;60446;50.752;4.352;2024-02-15T01:59:15;7.32;;;2.65;;
72439;SDS011;60446;50.752;4.352;2024-02-15T02:01:44;5.77;;;2.80;;
72439;SDS011;60446;50.752;4.352;2024-02-15T02:04:12;5.35;;;2.88;;
72439;SDS011;60446;50.752;4.352;2024-02-15T02:06:40;9.88;;;3.00;;
72439;SDS011;60446;50.752;4.352;2024-02-15T02:09:10;7.60;;;2.90;;
72439;SDS011;60446;50.752;4.352;2024-02-15T02:11:40;9.25;;;2.72;;
72439;SDS011;60446;50.752;4.352;2024-02-15T02:14:17;6.70;;;2.57;;
72439;SDS011;60446;50.752;4.352;2024-02-15T02:16:47;6.20;;;2.65;;
72439;SDS011;60446;50.752;4.352;2024-02-15T02:19:14;8.07;;;2.40;;
72439;SDS011;60446;50.752;4.352;2024-02-15T02:21:43;7.85;;;2.90;;
72439;SDS011;60446;50.752;4.352;2024-02-15T02:24:12;9.23;;;2.58;;
72439;SDS011;60446;50.752;4.352;2024-02-15T02:26:41;7.50;;;2.40;;
72439;SDS011;60446;50.752;4.352;2024-02-15T02:29:10;7.13;;;2.47;;
72439;SDS011;60446;50.752;4.352;2024-02-15T02:31:37;8.70;;;2.83;;
72439;SDS011;60446;50.752;4.352;2024-02-15T02:34:08;6.40;;;2.10;;
72439;SDS011;60446;50.752;4.352;2024-02-15T02:36:37;6.10;;;2.67;;
72439;SDS011;60446;50.752;4.352;2024-02-15T02:39:04;5.70;;;2.40;;
72439;SDS011;60446;50.752;4.352;2024-02-15T02:41:33;5.10;;;2.42;;
72439;SDS011;60446;50.752;4.352;2024-02-15T02:44:01;8.07;;;2.95;;
72439;SDS011;60446;50.752;4.352;2024-02-15T02:46:28;8.45;;;2.67;;
72439;SDS011;60446;50.752;4.352;2024-02-15T02:48:55;9.82;;;2.85;;
72439;SDS011;60446;50.752;4.352;2024-02-15T02:51:26;7.43;;;2.57;;
72439;SDS011;60446;50.752;4.352;2024-02-15T02:53:53;9.45;;;2.55;;
72439;SDS011;60446;50.752;4.352;2024-02-15T02:56:20;7.20;;;2.60;;
72439;SDS011;60446;50.752;4.352;2024-02-15T02:58:47;9.50;;;2.90;;
72439;SDS011;60446;50.752;4.352;2024-02-15T03:01:14;6.55;;;2.40;;
72439;SDS011;60446;50.752;4.352;2024-02-15T03:03:42;8.07;;;2.73;;
72439;SDS011;60446;50.752;4.352;2024-02-15T03:06:10;7.43;;;2.92;;
72439;SDS011;60446;50.752;4.352;2024-02-15T03:08:37;8.73;;;2.47;;
72439;SDS011;60446;50.752;4.352;2024-02-15T03:11:05;7.57;;;3.05;;
72439;SDS011;60446;50.752;4.352;2024-02-15T03:13:32;8.35;;;2.85;;
72439;SDS011;60446;50.752;4.352;2024-02-15T03:15:59;7.83;;;2.50;;
72439;SDS011;60446;50.752;4.352;2024-02-15T03:18:26;6.20;;;2.45;;
72439;SDS011;60446;50.752;4.352;2024-02-15T03:20:53;7.45;;;3.10;;
72439;SDS011;60446;50.752;4.352;2024-02-15T03:23:21;7.93;;;2.70;;
72439;SDS011;60446;50.752;4.352;2024-02-15T03:25:49;6.63;;;2.72;;
72439;SDS011;60446;50.752;4.352;2024-02-15T03:28:16;6.90;;;3.00;;
72439;SDS011;60446;50.752;4.352;2024-02-15T03:30:44;8.65;;;3.25;;
72439;SDS011;60446;50.752;4.352;2024-02-15T03:33:12;7.05;;;2.47;;
72439;SDS011;60446;50.752;4.352;2024-02-15T03:35:40;9.52;;;2.60;;
72439;SDS011;60446;50.752;4.352;2024-02-15T03:38:08;10.30;;;2.72;;
72439;SDS011;60446;50.752;4.352;2024-02-15T03:40:35;5.73;;;2.40;;
72439;SDS011;60446;50.752;4.352;2024-02-15T03:43:03;8.63;;;3.38;;
72439;SDS011;60446;50.752;4.352;2024-02-15T03:45:33;8.27;;;2.95;;
72439;SDS011;60446;50.752;4.352;2024-02-15T03:48:01;9.07;;;2.72;;
72439;SDS011;60446;50.752;4.352;2024-02-15T03:50:31;7.22;;;3.10;;
72439;SDS011;60446;50.752;4.352;2024-02-15T03:52:59;8.30;;;2.50;;
72439;SDS011;60446;50.752;4.352;2024-02-15T03:55:27;6.80;;;2.58;;
72439;SDS011;60446;50.752;4.352;2024-02-15T03:57:54;5.50;;;2.80;;
72439;SDS011;60446;50.752;4.352;2024-02-15T04:00:24;6.82;;;2.55;;
72439;SDS011;60446;50.752;4.352;2024-02-15T04:02:52;6.88;;;2.78;;
72439;SDS011;60446;50.752;4.352;2024-02-15T04:05:20;7.97;;;2.93;;
72439;SDS011;60446;50.752;4.352;2024-02-15T04:07:49;5.90;;;2.85;;
72439;SDS011;60446;50.752;4.352;2024-02-15T04:10:16;5.25;;;2.47;;
72439;SDS011;60446;50.752;4.352;2024-02-15T04:12:45;6.57;;;2.90;;
72439;SDS011;60446;50.752;4.352;2024-02-15T04:15:12;5.13;;;2.38;;
72439;SDS011;60446;50.752;4.352;2024-02-15T04:17:44;8.63;;;3.03;;
72439;SDS011;60446;50.752;4.352;2024-02-15T04:20:12;7.50;;;3.03;;
72439;SDS011;60446;50.752;4.352;2024-02-15T04:22:42;5.72;;;2.60;;
72439;SDS011;60446;50.752;4.352;2024-02-15T04:25:11;7.88;;;3.50;;
72439;SDS011;60446;50.752;4.352;2024-02-15T04:27:47;7.28;;;2.63;;
72439;SDS011;60446;50.752;4.352;2024-02-15T04:30:16;7.87;;;2.70;;
72439;SDS011;60446;50.752;4.352;2024-02-15T04:32:44;6.15;;;2.53;;
72439;SDS011;60446;50.752;4.352;2024-02-15T04:35:13;6.70;;;2.50;;
72439;SDS011;60446;50.752;4.352;2024-02-15T04:37:41;6.38;;;2.65;;
72439;SDS011;60446;50.752;4.352;2024-02-15T04:40:09;10.38;;;3.20;;
72439;SDS011;60446;50.752;4.352;2024-02-15T04:42:37;4.70;;;2.27;;
72439;SDS011;60446;50.752;4.352;2024-02-15T04:45:10;8.65;;;2.80;;
72439;SDS011;60446;50.752;4.352;2024-02-15T04:47:41;6.18;;;2.70;;
72439;SDS011;60446;50.752;4.352;2024-02-15T04:50:09;4.70;;;2.25;;
72439;SDS011;60446;50.752;4.352;2024-02-15T04:52:36;5.65;;;3.00;;
72439;SDS011;60446;50.752;4.352;2024-02-15T04:55:04;5.73;;;2.23;;
72439;SDS011;60446;50.752;4.352;2024-02-15T04:57:32;7.88;;;2.60;;
72439;SDS011;60446;50.752;4.352;2024-02-15T05:00:03;7.38;;;2.55;;
72439;SDS011;60446;50.752;4.352;2024-02-15T05:02:37;6.30;;;3.00;;
72439;SDS011;60446;50.752;4.352;2024-02-15T05:05:08;6.10;;;2.42;;
72439;SDS011;60446;50.752;4.352;2024-02-15T05:07:41;5.23;;;2.50;;
72439;SDS011;60446;50.752;4.352;2024-02-15T05:10:09;4.70;;;2.40;;
72439;SDS011;60446;50.752;4.352;2024-02-15T05:12:37;6.13;;;2.63;;
72439;SDS011;60446;50.752;4.352;2024-02-15T05:15:09;5.95;;;2.50;;
72439;SDS011;60446;50.752;4.352;2024-02-15T05:17:43;5.45;;;2.83;;
72439;SDS011;60446;50.752;4.352;2024-02-15T05:20:11;5.60;;;2.83;;
72439;SDS011;60446;50.752;4.352;2024-02-15T05:22:41;4.57;;;2.40;;
72439;SDS011;60446;50.752;4.352;2024-02-15T05:25:20;6.22;;;2.38;;
72439;SDS011;60446;50.752;4.352;2024-02-15T05:27:53;5.03;;;2.42;;
72439;SDS011;60446;50.752;4.352;2024-02-15T05:30:22;5.30;;;3.05;;
72439;SDS011;60446;50.752;4.352;2024-02-15T05:32:50;6.80;;;2.63;;
72439;SDS011;60446;50.752;4.352;2024-02-15T05:35:20;7.28;;;2.25;;
72439;SDS011;60446;50.752;4.352;2024-02-15T05:37:47;4.90;;;2.65;;
72439;SDS011;60446;50.752;4.352;2024-02-15T05:40:19;7.05;;;2.40;;
72439;SDS011;60446;50.752;4.352;2024-02-15T05:42:47;7.63;;;2.58;;
72439;SDS011;60446;50.752;4.352;2024-02-15T05:45:28;5.67;;;2.60;;
72439;SDS011;60446;50.752;4.352;2024-02-15T05:47:59;6.72;;;2.20;;
72439;SDS011;60446;50.752;4.352;2024-02-15T05:50:27;4.22;;;2.22;;
72439;SDS011;60446;50.752;4.352;2024-02-15T05:52:56;4.70;;;2.30;;
72439;SDS011;60446;50.752;4.352;2024-02-15T05:55:25;6.45;;;2.47;;
72439;SDS011;60446;50.752;4.352;2024-02-15T05:57:54;6.30;;;2.23;;
72439;SDS011;60446;50.752;4.352;2024-02-15T06:00:21;6.50;;;2.30;;
72439;SDS011;60446;50.752;4.352;2024-02-15T06:02:49;6.13;;;2.50;;
72439;SDS011;60446;50.752;4.352;2024-02-15T06:05:19;5.07;;;2.33;;
72439;SDS011;60446;50.752;4.352;2024-02-15T06:07:47;5.97;;;2.35;;
72439;SDS011;60446;50.752;4.352;2024-02-15T06:10:14;5.47;;;2.20;;
72439;SDS011;60446;50.752;4.352;2024-02-15T06:12:42;4.10;;;2.40;;
72439;SDS011;60446;50.752;4.352;2024-02-15T06:15:10;7.80;;;2.42;;
72439;SDS011;60446;50.752;4.352;2024-02-15T06:17:44;6.03;;;2.28;;
72439;SDS011;60446;50.752;4.352;2024-02-15T06:20:13;4.63;;;2.10;;
72439;SDS011;60446;50.752;4.352;2024-02-15T06:22:41;6.77;;;2.67;;
72439;SDS011;60446;50.752;4.352;2024-02-15T06:25:12;5.65;;;2.08;;
72439;SDS011;60446;50.752;4.352;2024-02-15T06:27:40;5.55;;;2.40;;
72439;SDS011;60446;50.752;4.352;2024-02-15T06:30:09;6.63;;;2.08;;
72439;SDS011;60446;50.752;4.352;2024-02-15T06:32:56;6.13;;;2.13;;
72439;SDS011;60446;50.752;4.352;2024-02-15T06:35:43;7.83;;;2.50;;
72439;SDS011;60446;50.752;4.352;2024-02-15T06:38:29;4.53;;;2.25;;
72439;SDS011;60446;50.752;4.352;2024-02-15T06:41:14;5.18;;;2.60;;
72439;SDS011;60446;50.752;4.352;2024-02-15T06:43:42;5.72;;;2.20;;
72439;SDS011;60446;50.752;4.352;2024-02-15T06:46:09;5.13;;;2.35;;
72439;SDS011;60446;50.752;4.352;2024-02-15T06:48:41;4.67;;;2.23;;
72439;SDS011;60446;50.752;4.352;2024-02-15T06:51:15;5.22;;;2.40;;
72439;SDS011;60446;50.752;4.352;2024-02-15T06:53:42;7.13;;;2.45;;
72439;SDS011;60446;50.752;4.352;2024-02-15T06:56:10;5.82;;;2.40;;
72439;SDS011;60446;50.752;4.352;2024-02-15T06:58:39;5.88;;;2.92;;
72439;SDS011;60446;50.752;4.352;2024-02-15T07:01:09;3.87;;;2.03;;
72439;SDS011;60446;50.752;4.352;2024-02-15T07:03:40;6.97;;;2.28;;
72439;SDS011;60446;50.752;4.352;2024-02-15T07:06:07;5.05;;;2.30;;
72439;SDS011;60446;50.752;4.352;2024-02-15T07:08:35;6.43;;;2.65;;
72439;SDS011;60446;50.752;4.352;2024-02-15T07:11:02;5.47;;;2.63;;
72439;SDS011;60446;50.752;4.352;2024-02-15T07:13:37;5.33;;;2.40;;
72439;SDS011;60446;50.752;4.352;2024-02-15T07:16:07;6.13;;;2.65;;
72439;SDS011;60446;50.752;4.352;2024-02-15T07:18:35;6.53;;;2.47;;
72439;SDS011;60446;50.752;4.352;2024-02-15T07:21:03;6.20;;;2.55;;
72439;SDS011;60446;50.752;4.352;2024-02-15T07:23:35;6.03;;;2.65;;
72439;SDS011;60446;50.752;4.352;2024-02-15T07:26:04;6.07;;;2.70;;
72439;SDS011;60446;50.752;4.352;2024-02-15T07:28:31;5.35;;;2.40;;
72439;SDS011;60446;50.752;4.352;2024-02-15T07:30:58;6.13;;;2.92;;
72439;SDS011;60446;50.752;4.352;2024-02-15T07:33:29;6.45;;;2.60;;
72439;SDS011;60446;50.752;4.352;2024-02-15T07:35:56;4.07;;;2.33;;
72439;SDS011;60446;50.752;4.352;2024-02-15T07:38:23;5.03;;;2.17;;
72439;SDS011;60446;50.752;4.352;2024-02-15T07:40:52;6.45;;;2.78;;
72439;SDS011;60446;50.752;4.352;2024-02-15T07:43:21;6.47;;;2.63;;
72439;SDS011;60446;50.752;4.352;2024-02-15T07:45:50;6.22;;;2.88;;
72439;SDS011;60446;50.752;4.352;2024-02-15T07:48:17;6.90;;;3.13;;
72439;SDS011;60446;50.752;4.352;2024-02-15T07:50:44;6.60;;;2.70;;
72439;SDS011;60446;50.752;4.352;2024-02-15T07:53:11;7.28;;;2.85;;
72439;SDS011;60446;50.752;4.352;2024-02-15T07:55:40;5.60;;;2.67;;
72439;SDS011;60446;50.752;4.352;2024-02-15T07:58:08;6.50;;;2.83;;
72439;SDS011;60446;50.752;4.352;2024-02-15T08:00:35;5.28;;;2.75;;
72439;SDS011;60446;50.752;4.352;2024-02-15T08:03:04;5.87;;;2.90;;
72439;SDS011;60446;50.752;4.352;2024-02-15T08:05:32;7.32;;;2.63;;
72439;SDS011;60446;50.752;4.352;2024-02-15T08:08:00;4.93;;;2.38;;
72439;SDS011;60446;50.752;4.352;2024-02-15T08:10:27;6.70;;;2.45;;
72439;SDS011;60446;50.752;4.352;2024-02-15T08:12:55;5.63;;;2.40;;
72439;SDS011;60446;50.752;4.352;2024-02-15T08:15:24;6.57;;;2.57;;
72439;SDS011;60446;50.752;4.352;2024-02-15T08:17:54;6.15;;;2.50;;
72439;SDS011;60446;50.752;4.352;2024-02-15T08:20:22;4.50;;;2.40;;
72439;SDS011;60446;50.752;4.352;2024-02-15T08:22:49;6.63;;;1.95;;
72439;SDS011;60446;50.752;4.352;2024-02-15T08:25:16;5.03;;;2.75;;
72439;SDS011;60446;50.752;4.352;2024-02-15T08:27:47;6.17;;;2.23;;
72439;SDS011;60446;50.752;4.352;2024-02-15T08:30:17;4.90;;;2.15;;
72439;SDS011;60446;50.752;4.352;2024-02-15T08:32:50;5.20;;;2.42;;
72439;SDS011;60446;50.752;4.352;2024-02-15T08:35:21;6.45;;;2.20;;
72439;SDS011;60446;50.752;4.352;2024-02-15T08:37:48;8.60;;;2.60;;
72439;SDS011;60446;50.752;4.352;2024-02-15T08:40:18;7.93;;;2.90;;
72439;SDS011;60446;50.752;4.352;2024-02-15T08:42:51;6.25;;;2.92;;
72439;SDS011;60446;50.752;4.352;2024-02-15T08:45:18;7.38;;;2.92;;
72439;SDS011;60446;50.752;4.352;2024-02-15T08:47:47;8.25;;;2.63;;
72439;SDS011;60446;50.752;4.352;2024-02-15T08:50:16;6.90;;;2.60;;
72439;SDS011;60446;50.752;4.352;2024-02-15T08:52:44;6.70;;;2.90;;
72439;SDS011;60446;50.752;4.352;2024-02-15T08:55:13;6.07;;;2.08;;
72439;SDS011;60446;50.752;4.352;2024-02-15T08:57:41;8.75;;;2.83;;
72439;SDS011;60446;50.752;4.352;2024-02-15T09:00:10;5.53;;;2.53;;
72439;SDS011;60446;50.752;4.352;2024-02-15T09:02:44;7.57;;;2.83;;
72439;SDS011;60446;50.752;4.352;2024-02-15T09:05:19;9.60;;;2.87;;
72439;SDS011;60446;50.752;4.352;2024-02-15T09:07:48;5.28;;;2.55;;
72439;SDS011;60446;50.752;4.352;2024-02-15T09:10:17;4.80;;;2.42;;
72439;SDS011;60446;50.752;4.352;2024-02-15T09:12:45;5.00;;;2.60;;
72439;SDS011;60446;50.752;4.352;2024-02-15T09:15:16;5.20;;;2.58;;
72439;SDS011;60446;50.752;4.352;2024-02-15T09:17:45;6.43;;;2.47;;
72439;SDS011;60446;50.752;4.352;2024-02-15T09:20:16;5.07;;;1.95;;
72439;SDS011;60446;50.752;4.352;2024-02-15T09:22:48;8.15;;;2.90;;
72439;SDS011;60446;50.752;4.352;2024-02-15T09:25:21;5.57;;;2.42;;
72439;SDS011;60446;50.752;4.352;2024-02-15T09:27:52;6.55;;;2.70;;
72439;SDS011;60446;50.752;4.352;2024-02-15T09:30:20;6.17;;;2.60;;
72439;SDS011;60446;50.752;4.352;2024-02-15T09:32:51;6.93;;;2.42;;
72439;SDS011;60446;50.752;4.352;2024-02-15T09:35:18;5.95;;;2.78;;
72439;SDS011;60446;50.752;4.352;2024-02-15T09:37:48;6.20;;;2.83;;
72439;SDS011;60446;50.752;4.352;2024-02-15T09:40:16;6.13;;;2.58;;
72439;SDS011;60446;50.752;4.352;2024-02-15T09:42:46;6.90;;;2.30;;
72439;SDS011;60446;50.752;4.352;2024-02-15T09:45:14;7.18;;;2.42;;
72439;SDS011;60446;50.752;4.352;2024-02-15T09:47:43;4.22;;;2.28;;
72439;SDS011;60446;50.752;4.352;2024-02-15T09:50:14;4.72;;;2.03;;
72439;SDS011;60446;50.752;4.352;2024-02-15T09:52:52;5.35;;;2.42;;
72439;SDS011;60446;50.752;4.352;2024-02-15T09:55:23;5.40;;;2.87;;
72439;SDS011;60446;50.752;4.352;2024-02-15T09:57:52;5.32;;;2.88;;
72439;SDS011;60446;50.752;4.352;2024-02-15T10:00:19;8.80;;;3.00;;
72439;SDS011;60446;50.752;4.352;2024-02-15T10:02:48;6.60;;;2.60;;
72439;SDS011;60446;50.752;4.352;2024-02-15T10:05:19;6.03;;;2.45;;
72439;SDS011;60446;50.752;4.352;2024-02-15T10:07:47;5.20;;;2.40;;
72439;SDS011;60446;50.752;4.352;2024-02-15T10:12:43;5.22;;;2.63;;
72439;SDS011;60446;50.752;4.352;2024-02-15T10:15:10;4.40;;;2.15;;
72439;SDS011;60446;50.752;4.352;2024-02-15T10:18:03;4.55;;;2.17;;
72439;SDS011;60446;50.752;4.352;2024-02-15T10:20:36;7.43;;;2.50;;
72439;SDS011;60446;50.752;4.352;2024-02-15T10:23:13;5.38;;;2.38;;
72439;SDS011;60446;50.752;4.352;2024-02-15T10:25:45;5.45;;;2.63;;
72439;SDS011;60446;50.752;4.352;2024-02-15T10:28:13;4.80;;;2.22;;
72439;SDS011;60446;50.752;4.352;2024-02-15T10:30:46;4.93;;;2.60;;
72439;SDS011;60446;50.752;4.352;2024-02-15T10:33:28;5.43;;;1.80;;
72439;SDS011;60446;50.752;4.352;2024-02-15T10:36:06;6.22;;;2.60;;
72439;SDS011;60446;50.752;4.352;2024-02-15T10:38:35;5.15;;;2.35;;
72439;SDS011;60446;50.752;4.352;2024-02-15T10:41:04;6.07;;;3.00;;
72439;SDS011;60446;50.752;4.352;2024-02-15T10:43:33;8.82;;;2.78;;
72439;SDS011;60446;50.752;4.352;2024-02-15T10:46:00;6.07;;;2.10;;
72439;SDS011;60446;50.752;4.352;2024-02-15T10:48:29;4.65;;;1.92;;
72439;SDS011;60446;50.752;4.352;2024-02-15T10:50:58;5.72;;;2.85;;
72439;SDS011;60446;50.752;4.352;2024-02-15T10:53:31;6.97;;;2.08;;
72439;SDS011;60446;50.752;4.352;2024-02-15T10:58:59;7.70;;;2.07;;
72439;SDS011;60446;50.752;4.352;2024-02-15T11:01:43;9.82;;;2.60;;
72439;SDS011;60446;50.752;4.352;2024-02-15T11:04:15;4.38;;;2.00;;
72439;SDS011;60446;50.752;4.352;2024-02-15T11:06:48;4.20;;;2.10;;
72439;SDS011;60446;50.752;4.352;2024-02-15T11:09:17;6.15;;;2.70;;
72439;SDS011;60446;50.752;4.352;2024-02-15T11:11:46;4.03;;;2.20;;
72439;SDS011;60446;50.752;4.352;2024-02-15T11:14:26;4.40;;;2.30;;
72439;SDS011;60446;50.752;4.352;2024-02-15T11:17:02;4.22;;;2.63;;
72439;SDS011;60446;50.752;4.352;2024-02-15T11:22:13;4.22;;;2.22;;
72439;SDS011;60446;50.752;4.352;2024-02-15T11:24:47;6.03;;;1.90;;
72439;SDS011;60446;50.752;4.352;2024-02-15T11:27:29;5.60;;;2.47;;
72439;SDS011;60446;50.752;4.352;2024-02-15T11:29:59;5.32;;;2.83;;
72439;SDS011;60446;50.752;4.352;2024-02-15T11:35:17;5.60;;;2.60;;
72439;SDS011;60446;50.752;4.352;2024-02-15T11:40:23;4.72;;;1.98;;
72439;SDS011;60446;50.752;4.352;2024-02-15T11:42:57;3.95;;;2.70;;
72439;SDS011;60446;50.752;4.352;2024-02-15T11:45:27;4.97;;;2.83;;
72439;SDS011;60446;50.752;4.352;2024-02-15T11:48:13;5.68;;;2.70;;
72439;SDS011;60446;50.752;4.352;2024-02-15T11:50:42;6.40;;;2.37;;
72439;SDS011;60446;50.752;4.352;2024-02-15T11:53:09;4.28;;;2.65;;
72439;SDS011;60446;50.752;4.352;2024-02-15T11:55:38;5.90;;;3.13;;
72439;SDS011;60446;50.752;4.352;2024-02-15T11:58:08;5.28;;;2.28;;
72439;SDS011;60446;50.752;4.352;2024-02-15T12:00:38;5.88;;;2.53;;
72439;SDS011;60446;50.752;4.352;2024-02-15T12:03:25;7.37;;;2.70;;
72439;SDS011;60446;50.752;4.352;2024-02-15T12:06:29;5.53;;;2.42;;
72439;SDS011;60446;50.752;4.352;2024-02-15T12:09:19;8.90;;;3.33;;
72439;SDS011;60446;50.752;4.352;2024-02-15T12:12:06;5.32;;;2.67;;
72439;SDS011;60446;50.752;4.352;2024-02-15T12:15:01;7.57;;;2.85;;
72439;SDS011;60446;50.752;4.352;2024-02-15T12:17:49;8.03;;;3.00;;
72439;SDS011;60446;50.752;4.352;2024-02-15T12:20:35;7.63;;;3.05;;
72439;SDS011;60446;50.752;4.352;2024-02-15T12:23:03;5.53;;;3.03;;
72439;SDS011;60446;50.752;4.352;2024-02-15T12:25:34;6.32;;;2.40;;
72439;SDS011;60446;50.752;4.352;2024-02-15T12:28:02;5.03;;;2.40;;
72439;SDS011;60446;50.752;4.352;2024-02-15T12:30:32;5.87;;;3.07;;
72439;SDS011;60446;50.752;4.352;2024-02-15T12:33:10;6.85;;;3.13;;
72439;SDS011;60446;50.752;4.352;2024-02-15T12:35:42;12.77;;;4.60;;
72439;SDS011;60446;50.752;4.352;2024-02-15T12:38:09;8.45;;;3.10;;
72439;SDS011;60446;50.752;4.352;2024-02-15T12:40:43;6.22;;;3.33;;
72439;SDS011;60446;50.752;4.352;2024-02-15T12:43:14;12.23;;;4.03;;
72439;SDS011;60446;50.752;4.352;2024-02-15T12:45:42;5.90;;;2.63;;
72439;SDS011;60446;50.752;4.352;2024-02-15T12:48:12;5.20;;;2.60;;
72439;SDS011;60446;50.752;4.352;2024-02-15T12:50:42;8.13;;;2.75;;
72439;SDS011;60446;50.752;4.352;2024-02-15T12:53:09;8.65;;;3.78;;
72439;SDS011;60446;50.752;4.352;2024-02-15T12:55:37;10.00;;;3.30;;
72439;SDS011;60446;50.752;4.352;2024-02-15T12:58:14;6.03;;;2.50;;
72439;SDS011;60446;50.752;4.352;2024-02-15T13:00:42;7.90;;;3.15;;
72439;SDS011;60446;50.752;4.352;2024-02-15T13:03:11;6.50;;;3.08;;
72439;SDS011;60446;50.752;4.352;2024-02-15T13:05:41;5.53;;;2.70;;
72439;SDS011;60446;50.752;4.352;2024-02-15T13:08:09;5.30;;;2.50;;
72439;SDS011;60446;50.752;4.352;2024-02-15T13:10:39;5.93;;;2.97;;
72439;SDS011;60446;50.752;4.352;2024-02-15T13:13:06;6.90;;;3.75;;
72439;SDS011;60446;50.752;4.352;2024-02-15T13:15:36;4.80;;;2.63;;
72439;SDS011;60446;50.752;4.352;2024-02-15T13:18:04;4.93;;;2.33;;
72439;SDS011;60446;50.752;4.352;2024-02-15T13:20:32;6.27;;;2.80;;
72439;SDS011;60446;50.752;4.352;2024-02-15T13:23:04;6.32;;;2.75;;
72439;SDS011;60446;50.752;4.352;2024-02-15T13:25:43;5.35;;;2.80;;
72439;SDS011;60446;50.752;4.352;2024-02-15T13:28:11;9.00;;;3.50;;
72439;SDS011;60446;50.752;4.352;2024-02-15T13:30:40;5.00;;;2.67;;
72439;SDS011;60446;50.752;4.352;2024-02-15T13:33:11;5.20;;;2.20;;
72439;SDS011;60446;50.752;4.352;2024-02-15T13:35:40;5.22;;;2.70;;
72439;SDS011;60446;50.752;4.352;2024-02-15T13:38:08;8.05;;;3.15;;
72439;SDS011;60446;50.752;4.352;2024-02-15T13:40:42;5.20;;;2.83;;
72439;SDS011;60446;50.752;4.352;2024-02-15T13:43:11;6.65;;;2.88;;
72439;SDS011;60446;50.752;4.352;2024-02-15T13:45:41;5.30;;;2.73;;
72439;SDS011;60446;50.752;4.352;2024-02-15T13:48:10;5.50;;;3.10;;
72439;SDS011;60446;50.752;4.352;2024-02-15T13:50:42;5.47;;;2.88;;
72439;SDS011;60446;50.752;4.352;2024-02-15T13:53:11;6.72;;;2.40;;
72439;SDS011;60446;50.752;4.352;2024-02-15T13:55:40;6.20;;;2.97;;
72439;SDS011;60446;50.752;4.352;2024-02-15T13:58:08;4.60;;;2.10;;
72439;SDS011;60446;50.752;4.352;2024-02-15T14:00:40;4.65;;;2.63;;
72439;SDS011;60446;50.752;4.352;2024-02-15T14:03:11;6.07;;;2.45;;
72439;SDS011;60446;50.752;4.352;2024-02-15T14:05:39;5.25;;;2.50;;
72439;SDS011;60446;50.752;4.352;2024-02-15T14:08:09;7.78;;;3.45;;
72439;SDS011;60446;50.752;4.352;2024-02-15T14:10:37;4.70;;;1.93;;
72439;SDS011;60446;50.752;4.352;2024-02-15T14:13:09;7.25;;;2.67;;
72439;SDS011;60446;50.752;4.352;2024-02-15T14:15:41;4.68;;;2.25;;
72439;SDS011;60446;50.752;4.352;2024-02-15T14:18:12;6.80;;;2.75;;
72439;SDS011;60446;50.752;4.352;2024-02-15T14:20:41;5.95;;;2.70;;
72439;SDS011;60446;50.752;4.352;2024-02-15T14:23:10;6.63;;;2.60;;
72439;SDS011;60446;50.752;4.352;2024-02-15T14:25:41;7.05;;;2.00;;
72439;SDS011;60446;50.752;4.352;2024-02-15T14:28:09;5.28;;;2.53;;
72439;SDS011;60446;50.752;4.352;2024-02-15T14:30:37;9.65;;;3.10;;
72439;SDS011;60446;50.752;4.352;2024-02-15T14:33:25;6.97;;;3.00;;
72439;SDS011;60446;50.752;4.352;2024-02-15T14:36:00;7.33;;;2.63;;
72439;SDS011;60446;50.752;4.352;2024-02-15T14:38:28;3.42;;;1.80;;
72439;SDS011;60446;50.752;4.352;2024-02-15T14:40:56;5.47;;;2.58;;
72439;SDS011;60446;50.752;4.352;2024-02-15T14:43:26;4.88;;;2.00;;
72439;SDS011;60446;50.752;4.352;2024-02-15T14:45:54;6.18;;;2.58;;
72439;SDS011;60446;50.752;4.352;2024-02-15T14:48:24;3.83;;;1.70;;
72439;SDS011;60446;50.752;4.352;2024-02-15T14:50:52;6.90;;;2.47;;
72439;SDS011;60446;50.752;4.352;2024-02-15T14:53:22;5.13;;;2.13;;
72439;SDS011;60446;50.752;4.352;2024-02-15T14:55:50;6.15;;;2.40;;
72439;SDS011;60446;50.752;4.352;2024-02-15T14:58:21;6.03;;;2.28;;
72439;SDS011;60446;50.752;4.352;2024-02-15T15:00:49;5.57;;;1.80;;
72439;SDS011;60446;50.752;4.352;2024-02-15T15:03:17;4.38;;;2.08;;
72439;SDS011;60446;50.752;4.352;2024-02-15T15:05:44;5.40;;;2.17;;
72439;SDS011;60446;50.752;4.352;2024-02-15T15:08:31;4.93;;;2.15;;
72439;SDS011;60446;50.752;4.352;2024-02-15T15:11:18;5.35;;;2.70;;
72439;SDS011;60446;50.752;4.352;2024-02-15T15:14:04;5.50;;;2.40;;
72439;SDS011;60446;50.752;4.352;2024-02-15T15:16:34;5.35;;;2.95;;
72439;SDS011;60446;50.752;4.352;2024-02-15T15:19:01;5.20;;;2.38;;